Bethel, Louisiana
Current Conditions -  °F | °C
As of 6:35 AM on Friday 21 Nov 2014 (Local Time) from KIER Reporting Station
Overcast Overcast  
Wind Chill: 55°   Ceiling: 7500
Heat Index: 55°   Visibility: 10mi
Dew Point: 52°   Wind: 5mph
Humidity: 89%   Direction: 110°ESE
Pressure: 30.21"   Gusts: NA
Location:  31.7926°N, 93.4001°W
Report Text: KIER 211235Z AUTO 11004KT 10SM SCT060 BKN075 OVC085 13/11 A3021 RMK AO2 T01260109
Loading
Personal Weather Stations






























Interactive Weather Map New forecast layout! Learn more

10-Day Weather Forecast

Advertisements
Track Severe Weather on mobile